Time;durP1;ratioP1;P1;durP2;ratioP2;P2;SDS_P1;SDS_P2;PMS_P1;PMS_P2;Temp;Humidity;BMP_temperature;BMP_pressure;BME280_temperature;BME280_humidity;BME280_pressure;Samples;Min_cycle;Max_cycle;Signal;HPM_P1;HPM_P2
2022/06/27 00:00:12;;;;;;;13.35;11.30;;;;;;;;;;518225;28;1351;-90
2022/06/27 00:00:28;;;;;;;14.05;12.02;;;;;;;;;;515915;28;1307;-91
2022/06/27 00:00:43;;;;;;;12.67;11.37;;;;;;;;;;516147;28;1271;-91
2022/06/27 00:00:59;;;;;;;11.90;10.80;;;;;;;;;;518113;28;1183;-91
2022/06/27 00:01:14;;;;;;;11.80;10.70;;;;;;;;;;516054;28;1365;-91
2022/06/27 00:01:29;;;;;;;12.40;11.05;;;;;;;;;;518004;28;1186;-91
2022/06/27 00:01:45;;;;;;;14.03;11.10;;;;;;;;;;518163;28;1263;-91
2022/06/27 00:02:00;;;;;;;12.95;11.02;;;;;;;;;;516049;28;1389;-91
2022/06/27 00:02:16;;;;;;;12.40;11.10;;;;;;;;;;516279;28;773;-91
2022/06/27 00:02:32;;;;;;;11.98;10.80;;;;;;;;;;516039;28;1328;-91
2022/06/27 00:02:48;;;;;;;13.73;10.95;;;;;;;;;;516020;28;1358;-92
2022/06/27 00:03:03;;;;;;;14.55;11.40;;;;;;;;;;516470;28;826;-91
2022/06/27 00:03:19;;;;;;;12.17;10.97;;;;;;;;;;515609;28;1275;-92
2022/06/27 00:03:34;;;;;;;11.60;10.60;;;;;;;;;;511965;28;1349;-91
2022/06/27 00:03:50;;;;;;;11.07;10.07;;;;;;;;;;510542;28;1147;-91
2022/06/27 00:04:05;;;;;;;11.27;10.18;;;;;;;;;;510066;29;1170;-91
2022/06/27 00:04:21;;;;;;;11.80;10.60;;;;;;;;;;510531;29;980;-91
2022/06/27 00:04:36;;;;;;;11.38;10.18;;;;;;;;;;512396;28;1004;-91
2022/06/27 00:04:52;;;;;;;11.23;10.10;;;;;;;;;;514031;28;1153;-92
2022/06/27 00:05:10;;;;;;;11.25;10.15;;;;;;;;;;514401;28;1294;-92
2022/06/27 00:05:25;;;;;;;10.77;9.77;;;;;;;;;;517062;28;1371;-91
2022/06/27 00:05:42;;;;;;;10.80;9.80;;;;;;;;;;517940;28;1139;-91
2022/06/27 00:05:58;;;;;;;10.75;9.68;;;;;;;;;;515727;28;1353;-91
2022/06/27 00:06:13;;;;;;;10.63;9.60;;;;;;;;;;516011;28;1264;-90
2022/06/27 00:06:29;;;;;;;10.95;9.95;;;;;;;;;;513947;28;1302;-91
2022/06/27 00:06:44;;;;;;;11.18;10.15;;;;;;;;;;513925;28;1177;-91
2022/06/27 00:07:00;;;;;;;11.13;10.07;;;;;;;;;;514134;28;837;-91
2022/06/27 00:07:15;;;;;;;11.02;9.95;;;;;;;;;;515994;28;1178;-91
2022/06/27 00:07:31;;;;;;;10.37;9.47;;;;;;;;;;514148;28;1258;-91
2022/06/27 00:07:47;;;;;;;10.48;9.48;;;;;;;;;;515796;28;1476;-91
2022/06/27 00:08:03;;;;;;;10.52;9.43;;;;;;;;;;518287;28;1301;-90
2022/06/27 00:08:18;;;;;;;9.90;8.90;;;;;;;;;;518015;28;1393;-91
2022/06/27 00:08:34;;;;;;;10.73;9.63;;;;;;;;;;518113;28;1322;-91
2022/06/27 00:08:50;;;;;;;12.13;10.57;;;;;;;;;;520153;28;1375;-92
2022/06/27 00:09:06;;;;;;;11.07;9.98;;;;;;;;;;520105;28;1204;-91
2022/06/27 00:09:21;;;;;;;10.48;9.48;;;;;;;;;;522065;28;1260;-91
2022/06/27 00:09:37;;;;;;;10.63;9.27;;;;;;;;;;520074;28;1246;-91
2022/06/27 00:09:54;;;;;;;10.05;9.00;;;;;;;;;;520000;28;955;-91
2022/06/27 00:10:10;;;;;;;10.50;9.43;;;;;;;;;;516034;28;1542;-91
2022/06/27 00:10:25;;;;;;;11.00;9.60;;;;;;;;;;515964;28;1254;-91
2022/06/27 00:10:40;;;;;;;10.60;9.48;;;;;;;;;;517980;28;1216;-91
2022/06/27 00:10:56;;;;;;;10.70;9.70;;;;;;;;;;515802;28;1175;-90
2022/06/27 00:11:11;;;;;;;10.52;9.52;;;;;;;;;;518004;28;1196;-90
2022/06/27 00:11:27;;;;;;;10.43;9.43;;;;;;;;;;517680;28;1305;-91
2022/06/27 00:11:42;;;;;;;10.18;9.18;;;;;;;;;;517631;28;1236;-90
2022/06/27 00:11:59;;;;;;;10.10;9.10;;;;;;;;;;515660;28;1224;-91
2022/06/27 00:12:15;;;;;;;10.45;9.45;;;;;;;;;;513640;28;1265;-90
2022/06/27 00:12:30;;;;;;;10.25;9.25;;;;;;;;;;517597;28;1970;-90
2022/06/27 00:12:46;;;;;;;10.87;9.77;;;;;;;;;;515605;28;1294;-90
2022/06/27 00:13:03;;;;;;;11.93;10.73;;;;;;;;;;515664;28;1426;-90
2022/06/27 00:13:18;;;;;;;11.80;10.60;;;;;;;;;;517782;28;1405;-90
2022/06/27 00:13:34;;;;;;;11.37;10.10;;;;;;;;;;517530;28;1358;-90
2022/06/27 00:13:49;;;;;;;11.00;9.90;;;;;;;;;;517946;28;862;-90
2022/06/27 00:14:05;;;;;;;10.95;9.93;;;;;;;;;;519683;28;1146;-90
2022/06/27 00:14:20;;;;;;;10.83;9.73;;;;;;;;;;517579;28;1160;-90
2022/06/27 00:14:36;;;;;;;10.40;9.40;;;;;;;;;;520151;28;1303;-90
2022/06/27 00:14:51;;;;;;;10.52;9.52;;;;;;;;;;520018;28;885;-90
2022/06/27 00:15:09;;;;;;;11.23;10.03;;;;;;;;;;519889;28;1298;-90
2022/06/27 00:15:25;;;;;;;11.50;10.40;;;;;;;;;;517999;28;1326;-90
2022/06/27 00:15:41;;;;;;;11.50;10.40;;;;;;;;;;517962;28;1297;-90
2022/06/27 00:15:57;;;;;;;11.57;10.43;;;;;;;;;;519704;28;1164;-90
2022/06/27 00:16:13;;;;;;;11.27;10.27;;;;;;;;;;517975;28;1463;-89
2022/06/27 00:16:28;;;;;;;11.27;10.27;;;;;;;;;;515982;28;1357;-90
2022/06/27 00:16:44;;;;;;;11.73;10.52;;;;;;;;;;508064;29;1359;-90
2022/06/27 00:17:00;;;;;;;11.77;10.47;;;;;;;;;;508155;29;838;-90
2022/06/27 00:17:16;;;;;;;11.90;10.70;;;;;;;;;;508182;29;1333;-90
2022/06/27 00:17:31;;;;;;;11.60;10.40;;;;;;;;;;508912;29;1253;-90
2022/06/27 00:17:47;;;;;;;11.70;10.60;;;;;;;;;;511913;28;1350;-90
2022/06/27 00:18:02;;;;;;;11.80;10.70;;;;;;;;;;512594;28;802;-89
2022/06/27 00:18:18;;;;;;;11.93;10.73;;;;;;;;;;514176;28;920;-89
2022/06/27 00:18:33;;;;;;;12.43;11.23;;;;;;;;;;512467;28;1285;-89
2022/06/27 00:18:49;;;;;;;12.60;11.40;;;;;;;;;;514055;28;1201;-89
2022/06/27 00:19:04;;;;;;;12.20;11.03;;;;;;;;;;512091;29;1270;-89
2022/06/27 00:19:20;;;;;;;11.98;10.88;;;;;;;;;;512070;28;1185;-89
2022/06/27 00:19:35;;;;;;;12.53;11.33;;;;;;;;;;512439;28;904;-89
2022/06/27 00:19:50;;;;;;;13.05;11.70;;;;;;;;;;513885;28;1307;-89
2022/06/27 00:20:07;;;;;;;12.77;11.37;;;;;;;;;;513937;28;1366;-89
2022/06/27 00:20:24;;;;;;;12.50;11.20;;;;;;;;;;513754;28;1410;-89
2022/06/27 00:20:40;;;;;;;12.70;11.50;;;;;;;;;;515752;28;1791;-89
2022/06/27 00:20:55;;;;;;;12.37;11.17;;;;;;;;;;513871;28;1237;-89
2022/06/27 00:21:12;;;;;;;12.82;11.60;;;;;;;;;;512466;28;1171;-89
2022/06/27 00:21:27;;;;;;;13.00;11.80;;;;;;;;;;511852;29;1811;-89
2022/06/27 00:21:43;;;;;;;12.98;11.77;;;;;;;;;;512088;28;790;-88
2022/06/27 00:21:58;;;;;;;13.90;12.50;;;;;;;;;;511056;29;1398;-88
2022/06/27 00:22:14;;;;;;;14.57;13.10;;;;;;;;;;511099;29;1181;-88
2022/06/27 00:22:29;;;;;;;14.27;12.77;;;;;;;;;;512210;28;1422;-88
2022/06/27 00:22:45;;;;;;;13.13;11.73;;;;;;;;;;514364;28;885;-88
2022/06/27 00:23:00;;;;;;;12.67;11.40;;;;;;;;;;516492;28;872;-88
2022/06/27 00:23:16;;;;;;;12.65;11.38;;;;;;;;;;518377;28;1425;-88
2022/06/27 00:23:31;;;;;;;12.73;11.43;;;;;;;;;;520165;28;983;-88
2022/06/27 00:23:46;;;;;;;12.80;11.50;;;;;;;;;;518457;28;1265;-88
2022/06/27 00:24:02;;;;;;;12.73;11.43;;;;;;;;;;517993;28;1168;-89
2022/06/27 00:24:17;;;;;;;13.48;12.18;;;;;;;;;;518163;28;1042;-88
2022/06/27 00:24:33;;;;;;;14.27;12.87;;;;;;;;;;515991;28;1159;-88
2022/06/27 00:24:49;;;;;;;13.95;12.57;;;;;;;;;;512052;29;931;-88
2022/06/27 00:25:05;;;;;;;13.85;12.45;;;;;;;;;;513310;28;1336;-88
2022/06/27 00:25:20;;;;;;;13.93;12.50;;;;;;;;;;509889;29;1271;-88
2022/06/27 00:25:36;;;;;;;14.43;12.80;;;;;;;;;;510422;29;1572;-88
2022/06/27 00:25:51;;;;;;;14.20;12.07;;;;;;;;;;512481;28;1191;-88
2022/06/27 00:26:08;;;;;;;12.70;11.33;;;;;;;;;;511878;28;1425;-88
2022/06/27 00:26:23;;;;;;;12.98;11.60;;;;;;;;;;514026;28;1396;-88
2022/06/27 00:26:39;;;;;;;12.27;11.07;;;;;;;;;;513983;28;1504;-88
2022/06/27 00:26:54;;;;;;;12.20;11.07;;;;;;;;;;513983;28;1193;-88
2022/06/27 00:27:09;;;;;;;12.48;11.30;;;;;;;;;;514027;28;1217;-88
2022/06/27 00:27:25;;;;;;;12.47;11.27;;;;;;;;;;516021;28;1167;-88
2022/06/27 00:27:40;;;;;;;12.50;11.30;;;;;;;;;;513970;28;1198;-88
2022/06/27 00:27:56;;;;;;;12.33;11.17;;;;;;;;;;513123;28;1395;-88
2022/06/27 00:28:11;;;;;;;11.73;10.63;;;;;;;;;;510792;28;1232;-88
2022/06/27 00:28:28;;;;;;;11.80;10.60;;;;;;;;;;514217;28;881;-88
2022/06/27 00:28:44;;;;;;;12.05;10.85;;;;;;;;;;511924;29;1312;-88
2022/06/27 00:28:59;;;;;;;12.20;11.00;;;;;;;;;;512638;28;1304;-88
2022/06/27 00:29:15;;;;;;;12.43;11.23;;;;;;;;;;512082;29;1221;-88
2022/06/27 00:29:30;;;;;;;12.67;11.37;;;;;;;;;;512097;29;1146;-88
2022/06/27 00:29:46;;;;;;;12.93;11.63;;;;;;;;;;512008;28;1169;-88
2022/06/27 00:30:02;;;;;;;12.65;11.45;;;;;;;;;;512094;29;1217;-88
2022/06/27 00:30:18;;;;;;;12.02;10.93;;;;;;;;;;511842;28;1254;-88
2022/06/27 00:30:33;;;;;;;12.18;10.98;;;;;;;;;;512074;29;1013;-88
2022/06/27 00:30:49;;;;;;;12.17;10.83;;;;;;;;;;514021;28;1239;-88
2022/06/27 00:31:04;;;;;;;11.97;10.73;;;;;;;;;;514017;28;1250;-88
2022/06/27 00:31:20;;;;;;;11.45;10.32;;;;;;;;;;513992;28;1547;-88
2022/06/27 00:31:35;;;;;;;11.60;10.40;;;;;;;;;;514091;28;1140;-87
2022/06/27 00:31:50;;;;;;;12.07;10.80;;;;;;;;;;513622;28;774;-88
2022/06/27 00:32:06;;;;;;;12.20;10.87;;;;;;;;;;510257;29;1737;-87
2022/06/27 00:32:23;;;;;;;12.90;11.05;;;;;;;;;;513058;28;1464;-88
2022/06/27 00:32:38;;;;;;;12.18;10.95;;;;;;;;;;510014;29;1907;-87
2022/06/27 00:32:54;;;;;;;11.95;10.75;;;;;;;;;;510540;29;1338;-87
2022/06/27 00:33:09;;;;;;;11.52;10.43;;;;;;;;;;512676;28;869;-87
2022/06/27 00:33:25;;;;;;;11.67;10.50;;;;;;;;;;512415;28;1138;-87
2022/06/27 00:33:40;;;;;;;11.53;10.43;;;;;;;;;;513801;28;1282;-88
2022/06/27 00:33:56;;;;;;;11.20;10.20;;;;;;;;;;514359;28;1408;-88
2022/06/27 00:34:11;;;;;;;11.37;10.23;;;;;;;;;;516071;28;1008;-88
2022/06/27 00:34:26;;;;;;;11.38;10.20;;;;;;;;;;516334;28;870;-88
2022/06/27 00:34:42;;;;;;;11.40;10.30;;;;;;;;;;518377;28;945;-88
2022/06/27 00:34:58;;;;;;;11.02;10.02;;;;;;;;;;518067;28;1015;-88
2022/06/27 00:35:13;;;;;;;11.00;10.00;;;;;;;;;;518536;28;841;-87
2022/06/27 00:35:29;;;;;;;11.10;10.00;;;;;;;;;;517792;28;1180;-88
2022/06/27 00:35:44;;;;;;;11.43;10.23;;;;;;;;;;518047;28;1184;-88
2022/06/27 00:36:00;;;;;;;11.77;10.57;;;;;;;;;;518116;28;1312;-87
2022/06/27 00:36:16;;;;;;;11.98;10.77;;;;;;;;;;516058;28;1424;-88
2022/06/27 00:36:31;;;;;;;12.25;10.75;;;;;;;;;;515970;28;1161;-88
2022/06/27 00:36:47;;;;;;;11.97;10.77;;;;;;;;;;516086;28;896;-88
2022/06/27 00:37:03;;;;;;;11.88;10.77;;;;;;;;;;515854;28;1285;-87
2022/06/27 00:37:19;;;;;;;11.60;10.50;;;;;;;;;;515875;28;1247;-88
2022/06/27 00:37:35;;;;;;;11.63;10.52;;;;;;;;;;515338;28;876;-87
2022/06/27 00:37:50;;;;;;;11.38;10.35;;;;;;;;;;514362;28;1302;-87
2022/06/27 00:38:06;;;;;;;11.30;10.20;;;;;;;;;;516333;28;1179;-88
2022/06/27 00:38:21;;;;;;;11.75;10.55;;;;;;;;;;519226;28;1448;-87
2022/06/27 00:38:37;;;;;;;11.23;10.13;;;;;;;;;;515778;28;1169;-88
2022/06/27 00:38:52;;;;;;;11.30;10.20;;;;;;;;;;513859;28;1155;-88
2022/06/27 00:39:08;;;;;;;11.50;10.37;;;;;;;;;;515837;28;1197;-88
2022/06/27 00:39:25;;;;;;;11.05;9.95;;;;;;;;;;515710;28;1629;-87
2022/06/27 00:39:40;;;;;;;10.85;9.85;;;;;;;;;;515746;28;1290;-88
2022/06/27 00:39:55;;;;;;;10.90;9.82;;;;;;;;;;513737;28;1155;-87
2022/06/27 00:40:11;;;;;;;10.77;9.67;;;;;;;;;;513922;28;953;-88
2022/06/27 00:40:27;;;;;;;10.80;9.80;;;;;;;;;;514579;28;1604;-87
2022/06/27 00:40:42;;;;;;;10.13;9.23;;;;;;;;;;516293;28;1208;-88
2022/06/27 00:40:58;;;;;;;10.43;9.43;;;;;;;;;;515410;28;1571;-88
2022/06/27 00:41:13;;;;;;;10.73;9.63;;;;;;;;;;514391;28;842;-88
2022/06/27 00:41:29;;;;;;;10.23;9.30;;;;;;;;;;516150;28;1475;-88
2022/06/27 00:41:44;;;;;;;10.83;9.83;;;;;;;;;;517918;28;895;-87
2022/06/27 00:41:59;;;;;;;11.95;10.77;;;;;;;;;;517839;28;1593;-87
2022/06/27 00:42:15;;;;;;;12.30;11.00;;;;;;;;;;517820;28;1191;-88
2022/06/27 00:42:31;;;;;;;11.45;10.30;;;;;;;;;;517931;28;1358;-87
2022/06/27 00:42:46;;;;;;;11.00;10.00;;;;;;;;;;518393;28;1175;-87
2022/06/27 00:43:01;;;;;;;11.50;10.32;;;;;;;;;;520047;28;1370;-87
2022/06/27 00:43:18;;;;;;;12.00;10.27;;;;;;;;;;519845;28;1015;-88
2022/06/27 00:43:33;;;;;;;11.07;9.90;;;;;;;;;;517606;28;927;-88
2022/06/27 00:43:49;;;;;;;11.13;10.03;;;;;;;;;;514719;28;1313;-87
2022/06/27 00:44:04;;;;;;;10.97;9.97;;;;;;;;;;515470;28;1189;-87
2022/06/27 00:44:37;;;;;;;10.65;9.70;;;;;;;;;;514024;28;786;-87
2022/06/27 00:44:53;;;;;;;11.73;10.52;;;;;;;;;;516248;28;900;-87
2022/06/27 00:45:09;;;;;;;11.20;10.13;;;;;;;;;;515815;28;1531;-88
2022/06/27 00:45:24;;;;;;;10.80;9.80;;;;;;;;;;515750;28;1298;-88
2022/06/27 00:45:40;;;;;;;10.95;9.93;;;;;;;;;;516080;28;948;-87
2022/06/27 00:45:55;;;;;;;10.97;9.87;;;;;;;;;;516698;28;1258;-87
2022/06/27 00:46:11;;;;;;;10.95;9.88;;;;;;;;;;518063;28;1425;-87
2022/06/27 00:46:28;;;;;;;11.40;10.30;;;;;;;;;;517895;28;1242;-88
2022/06/27 00:46:43;;;;;;;12.02;10.73;;;;;;;;;;517815;28;1290;-88
2022/06/27 00:46:59;;;;;;;11.43;10.30;;;;;;;;;;518565;28;845;-88
2022/06/27 00:47:15;;;;;;;11.32;10.23;;;;;;;;;;517258;28;1207;-87
2022/06/27 00:47:31;;;;;;;11.02;10.02;;;;;;;;;;517909;28;1363;-87
2022/06/27 00:47:46;;;;;;;11.10;10.00;;;;;;;;;;515881;28;1321;-87
2022/06/27 00:48:01;;;;;;;11.60;10.40;;;;;;;;;;513843;28;1196;-88
2022/06/27 00:48:17;;;;;;;11.57;10.43;;;;;;;;;;513883;28;1175;-87
2022/06/27 00:48:32;;;;;;;11.60;10.48;;;;;;;;;;515617;28;1299;-87
2022/06/27 00:48:48;;;;;;;12.07;10.87;;;;;;;;;;516117;28;1556;-87
2022/06/27 00:49:04;;;;;;;12.23;10.90;;;;;;;;;;516532;28;1190;-87
2022/06/27 00:49:19;;;;;;;12.40;11.00;;;;;;;;;;514211;28;1327;-87
2022/06/27 00:49:35;;;;;;;12.03;10.83;;;;;;;;;;513146;28;1151;-87
2022/06/27 00:49:51;;;;;;;11.82;10.70;;;;;;;;;;512260;29;831;-87
2022/06/27 00:50:07;;;;;;;11.55;10.45;;;;;;;;;;510142;29;1510;-87
2022/06/27 00:50:23;;;;;;;11.25;10.25;;;;;;;;;;510715;29;1614;-88
2022/06/27 00:50:39;;;;;;;11.55;10.45;;;;;;;;;;510192;29;1292;-87
2022/06/27 00:50:56;;;;;;;11.70;10.50;;;;;;;;;;510680;29;1565;-87
2022/06/27 00:51:12;;;;;;;11.10;10.00;;;;;;;;;;512859;28;1090;-87
2022/06/27 00:51:27;;;;;;;11.23;10.18;;;;;;;;;;512823;28;1752;-87
2022/06/27 00:51:43;;;;;;;11.87;10.67;;;;;;;;;;514186;28;1167;-87
2022/06/27 00:52:03;;;;;;;12.73;10.77;;;;;;;;;;512839;28;1664;-88
2022/06/27 00:52:18;;;;;;;11.60;10.40;;;;;;;;;;514287;28;1080;-87
2022/06/27 00:52:34;;;;;;;11.00;9.82;;;;;;;;;;512442;28;1914;-87
2022/06/27 00:52:51;;;;;;;11.20;10.10;;;;;;;;;;514011;28;1275;-87
2022/06/27 00:53:08;;;;;;;13.13;9.85;;;;;;;;;;512351;29;1796;-87
2022/06/27 00:53:23;;;;;;;13.65;9.73;;;;;;;;;;514263;28;1548;-87
2022/06/27 00:53:39;;;;;;;11.27;10.18;;;;;;;;;;514168;28;1338;-87
2022/06/27 00:53:55;;;;;;;11.82;10.63;;;;;;;;;;516293;28;1238;-87
2022/06/27 00:54:10;;;;;;;11.85;10.60;;;;;;;;;;516108;28;1291;-87
2022/06/27 00:54:26;;;;;;;11.90;10.70;;;;;;;;;;514079;28;1150;-87
2022/06/27 00:54:43;;;;;;;12.23;11.00;;;;;;;;;;512129;28;1164;-87
2022/06/27 00:54:59;;;;;;;12.48;11.25;;;;;;;;;;515991;28;1573;-87
2022/06/27 00:55:15;;;;;;;12.32;11.23;;;;;;;;;;516212;28;837;-87
2022/06/27 00:55:31;;;;;;;11.93;10.82;;;;;;;;;;514103;28;1379;-87
2022/06/27 00:55:46;;;;;;;11.90;10.80;;;;;;;;;;513999;28;1469;-87
2022/06/27 00:56:02;;;;;;;12.07;10.93;;;;;;;;;;514123;28;1342;-87
2022/06/27 00:56:17;;;;;;;12.87;11.50;;;;;;;;;;514967;28;1667;-87
2022/06/27 00:56:33;;;;;;;13.37;11.97;;;;;;;;;;516364;28;1617;-88
2022/06/27 00:56:49;;;;;;;12.67;11.47;;;;;;;;;;515274;28;1766;-88
2022/06/27 00:57:05;;;;;;;12.70;11.43;;;;;;;;;;514910;28;1743;-88
2022/06/27 00:57:21;;;;;;;13.18;11.85;;;;;;;;;;514873;28;1759;-88
2022/06/27 00:57:37;;;;;;;13.40;12.13;;;;;;;;;;516363;28;935;-87
2022/06/27 00:57:53;;;;;;;13.52;12.23;;;;;;;;;;516248;28;1285;-87
2022/06/27 00:58:09;;;;;;;13.30;12.00;;;;;;;;;;517075;28;1260;-87
2022/06/27 00:58:24;;;;;;;13.53;12.23;;;;;;;;;;518308;28;909;-87
2022/06/27 00:58:39;;;;;;;13.48;12.15;;;;;;;;;;517043;28;1339;-87
2022/06/27 00:58:55;;;;;;;13.70;12.20;;;;;;;;;;516244;28;1254;-88
2022/06/27 00:59:10;;;;;;;13.52;12.10;;;;;;;;;;515944;28;1248;-88
2022/06/27 00:59:26;;;;;;;13.20;11.87;;;;;;;;;;514460;28;1284;-88
2022/06/27 00:59:42;;;;;;;13.27;11.98;;;;;;;;;;514365;28;1200;-88
2022/06/27 00:59:57;;;;;;;12.90;11.70;;;;;;;;;;514318;28;1192;-88
2022/06/27 01:00:13;;;;;;;13.20;11.90;;;;;;;;;;517387;28;1561;-88
2022/06/27 01:00:29;;;;;;;13.20;11.98;;;;;;;;;;519032;28;1530;-88
2022/06/27 01:00:44;;;;;;;13.48;12.18;;;;;;;;;;516308;28;1186;-88
2022/06/27 01:01:00;;;;;;;13.20;11.90;;;;;;;;;;516351;28;1212;-88
2022/06/27 01:01:17;;;;;;;13.40;12.15;;;;;;;;;;515457;28;1332;-88
2022/06/27 01:01:32;;;;;;;14.10;12.60;;;;;;;;;;514275;28;1428;-87
2022/06/27 01:01:48;;;;;;;13.68;12.23;;;;;;;;;;514367;28;832;-88
2022/06/27 01:02:05;;;;;;;13.38;12.07;;;;;;;;;;514242;28;1556;-88
2022/06/27 01:02:20;;;;;;;13.85;12.40;;;;;;;;;;510344;29;1253;-87
2022/06/27 01:02:35;;;;;;;15.43;13.02;;;;;;;;;;513153;28;1248;-87
2022/06/27 01:02:52;;;;;;;15.20;13.60;;;;;;;;;;514411;28;1209;-87
2022/06/27 01:03:07;;;;;;;14.35;12.95;;;;;;;;;;515012;28;1564;-88
2022/06/27 01:03:24;;;;;;;13.70;12.47;;;;;;;;;;513007;28;1547;-87
2022/06/27 01:03:40;;;;;;;13.70;12.40;;;;;;;;;;514606;28;1340;-87
2022/06/27 01:04:00;;;;;;;13.00;11.80;;;;;;;;;;515027;28;1757;-87
2022/06/27 01:04:16;;;;;;;13.43;12.15;;;;;;;;;;517296;28;1309;-87
2022/06/27 01:04:35;;;;;;;13.80;12.43;;;;;;;;;;514229;28;1155;-87
2022/06/27 01:04:51;;;;;;;12.77;11.48;;;;;;;;;;516830;28;1771;-87
2022/06/27 01:05:07;;;;;;;12.80;11.60;;;;;;;;;;515913;28;1034;-87
2022/06/27 01:05:22;;;;;;;13.52;12.15;;;;;;;;;;512618;28;1299;-87
2022/06/27 01:05:38;;;;;;;14.13;12.38;;;;;;;;;;510452;29;1344;-87
2022/06/27 01:05:53;;;;;;;13.10;11.80;;;;;;;;;;510392;29;1615;-87
2022/06/27 01:06:09;;;;;;;12.47;11.37;;;;;;;;;;509790;28;1376;-87
2022/06/27 01:06:24;;;;;;;12.50;11.30;;;;;;;;;;515287;28;2021;-87
2022/06/27 01:06:40;;;;;;;12.67;11.37;;;;;;;;;;516394;28;1160;-87
2022/06/27 01:06:56;;;;;;;12.43;11.32;;;;;;;;;;516393;28;1168;-87
2022/06/27 01:07:12;;;;;;;12.75;11.55;;;;;;;;;;516348;28;1240;-87
2022/06/27 01:07:27;;;;;;;12.80;11.53;;;;;;;;;;516962;28;1727;-87
2022/06/27 01:07:43;;;;;;;12.45;11.23;;;;;;;;;;519626;28;991;-87
2022/06/27 01:07:58;;;;;;;12.27;11.07;;;;;;;;;;518307;28;1309;-87
2022/06/27 01:08:14;;;;;;;12.10;10.90;;;;;;;;;;517756;28;1422;-87
2022/06/27 01:08:29;;;;;;;12.53;11.23;;;;;;;;;;514190;28;1711;-87
2022/06/27 01:08:45;;;;;;;12.50;11.30;;;;;;;;;;512426;29;1286;-87
2022/06/27 01:09:00;;;;;;;12.45;11.15;;;;;;;;;;514329;28;1252;-87
2022/06/27 01:09:16;;;;;;;12.47;11.17;;;;;;;;;;513569;28;1308;-87
2022/06/27 01:09:31;;;;;;;11.47;10.37;;;;;;;;;;513985;28;1541;-87
2022/06/27 01:09:47;;;;;;;11.38;10.25;;;;;;;;;;514125;28;1957;-87
2022/06/27 01:10:03;;;;;;;12.40;11.18;;;;;;;;;;517192;28;1451;-87
2022/06/27 01:10:18;;;;;;;12.50;11.30;;;;;;;;;;516244;28;1446;-87
2022/06/27 01:10:34;;;;;;;12.23;11.02;;;;;;;;;;514543;28;1294;-87
2022/06/27 01:10:49;;;;;;;12.27;11.07;;;;;;;;;;516323;28;1169;-87
2022/06/27 01:11:04;;;;;;;12.30;11.10;;;;;;;;;;516727;28;1270;-87
2022/06/27 01:11:20;;;;;;;12.67;11.37;;;;;;;;;;518127;28;817;-87
2022/06/27 01:11:36;;;;;;;12.55;11.07;;;;;;;;;;514348;28;1197;-87
2022/06/27 01:11:52;;;;;;;12.23;10.75;;;;;;;;;;515979;28;1253;-87
2022/06/27 01:12:08;;;;;;;13.45;11.27;;;;;;;;;;512317;29;1367;-87
2022/06/27 01:12:24;;;;;;;14.27;11.73;;;;;;;;;;516261;28;1281;-87
2022/06/27 01:12:42;;;;;;;13.60;12.20;;;;;;;;;;516170;28;1903;-87
2022/06/27 01:12:58;;;;;;;13.38;12.07;;;;;;;;;;516513;28;899;-87
2022/06/27 01:13:14;;;;;;;13.05;11.82;;;;;;;;;;514314;28;1353;-87
2022/06/27 01:13:31;;;;;;;12.98;11.77;;;;;;;;;;514095;28;1538;-87
2022/06/27 01:13:47;;;;;;;12.88;11.57;;;;;;;;;;510362;29;1468;-87
2022/06/27 01:14:03;;;;;;;12.73;11.45;;;;;;;;;;510276;29;1370;-87
2022/06/27 01:14:19;;;;;;;13.30;11.97;;;;;;;;;;511372;29;881;-87
2022/06/27 01:14:35;;;;;;;13.85;12.48;;;;;;;;;;512139;29;1579;-87
2022/06/27 01:14:50;;;;;;;14.02;12.63;;;;;;;;;;510208;29;1286;-87
2022/06/27 01:15:08;;;;;;;14.15;12.65;;;;;;;;;;509532;29;1310;-87
2022/06/27 01:15:25;;;;;;;15.02;13.43;;;;;;;;;;512266;28;1560;-87
2022/06/27 01:15:42;;;;;;;15.75;14.07;;;;;;;;;;514067;28;1767;-87
2022/06/27 01:15:57;;;;;;;15.93;14.32;;;;;;;;;;513152;28;1222;-87
2022/06/27 01:16:14;;;;;;;15.82;14.23;;;;;;;;;;514671;28;809;-87
2022/06/27 01:16:29;;;;;;;16.35;14.75;;;;;;;;;;514255;28;1281;-87
2022/06/27 01:16:45;;;;;;;16.17;14.63;;;;;;;;;;513356;28;861;-87
2022/06/27 01:17:01;;;;;;;16.42;14.73;;;;;;;;;;513814;28;1051;-87
2022/06/27 01:17:17;;;;;;;18.05;15.60;;;;;;;;;;516326;28;1602;-87
2022/06/27 01:17:34;;;;;;;18.27;15.90;;;;;;;;;;516655;28;1247;-87
2022/06/27 01:17:50;;;;;;;17.15;15.43;;;;;;;;;;517036;28;1366;-87
2022/06/27 01:18:05;;;;;;;17.40;15.37;;;;;;;;;;518409;28;1287;-87
2022/06/27 01:18:21;;;;;;;18.50;15.80;;;;;;;;;;518724;28;1180;-87
2022/06/27 01:18:37;;;;;;;16.75;14.85;;;;;;;;;;519184;28;1192;-87
2022/06/27 01:18:52;;;;;;;17.57;14.40;;;;;;;;;;518230;28;1171;-87
2022/06/27 01:19:13;;;;;;;19.70;15.05;;;;;;;;;;517243;28;1621;-87
2022/06/27 01:19:30;;;;;;;16.05;14.45;;;;;;;;;;514089;28;1445;-87
2022/06/27 01:19:45;;;;;;;15.77;14.20;;;;;;;;;;514172;28;1811;-87
2022/06/27 01:20:01;;;;;;;15.50;14.00;;;;;;;;;;512655;28;806;-87
2022/06/27 01:20:16;;;;;;;15.63;13.93;;;;;;;;;;512901;28;1567;-87
2022/06/27 01:20:32;;;;;;;16.10;14.27;;;;;;;;;;513184;28;1186;-87
2022/06/27 01:20:47;;;;;;;16.57;14.80;;;;;;;;;;515083;28;1699;-87
2022/06/27 01:21:03;;;;;;;17.38;15.30;;;;;;;;;;514661;28;1193;-87
2022/06/27 01:21:21;;;;;;;17.48;15.55;;;;;;;;;;514438;28;1746;-87
2022/06/27 01:21:44;;;;;;;18.23;15.93;;;;;;;;;;516099;28;1260;-87
2022/06/27 01:21:59;;;;;;;18.48;16.15;;;;;;;;;;514013;28;1364;-87
2022/06/27 01:22:16;;;;;;;18.65;16.00;;;;;;;;;;514024;28;1214;-87
2022/06/27 01:22:32;;;;;;;18.77;15.13;;;;;;;;;;514024;28;1236;-87
2022/06/27 01:22:47;;;;;;;15.95;14.27;;;;;;;;;;514164;28;1075;-87
2022/06/27 01:23:04;;;;;;;16.63;15.00;;;;;;;;;;516113;28;1221;-87
2022/06/27 01:23:20;;;;;;;16.27;14.70;;;;;;;;;;514818;28;841;-87
2022/06/27 01:23:36;;;;;;;15.37;13.93;;;;;;;;;;516501;28;1177;-87
2022/06/27 01:23:52;;;;;;;15.63;14.07;;;;;;;;;;514095;28;1513;-87
2022/06/27 01:24:08;;;;;;;15.73;14.18;;;;;;;;;;513008;28;892;-87
2022/06/27 01:24:26;;;;;;;16.00;14.40;;;;;;;;;;512998;28;1193;-87
2022/06/27 01:24:41;;;;;;;16.83;15.07;;;;;;;;;;513977;28;1527;-87
2022/06/27 01:24:56;;;;;;;17.20;15.40;;;;;;;;;;515265;28;816;-87
2022/06/27 01:25:14;;;;;;;17.23;15.40;;;;;;;;;;514753;28;1145;-87
2022/06/27 01:25:30;;;;;;;18.58;16.13;;;;;;;;;;518206;28;1277;-87
2022/06/27 01:25:45;;;;;;;19.83;16.52;;;;;;;;;;517189;28;1632;-87
2022/06/27 01:26:01;;;;;;;19.10;16.15;;;;;;;;;;518176;28;1223;-87
2022/06/27 01:26:18;;;;;;;17.75;15.85;;;;;;;;;;514065;28;1204;-87
2022/06/27 01:26:34;;;;;;;17.55;15.82;;;;;;;;;;518081;28;1438;-87
2022/06/27 01:26:50;;;;;;;17.45;15.65;;;;;;;;;;518263;28;970;-87
2022/06/27 01:27:07;;;;;;;16.30;14.63;;;;;;;;;;518062;28;1334;-87
2022/06/27 01:27:22;;;;;;;16.88;15.07;;;;;;;;;;515923;28;1358;-87
2022/06/27 01:27:37;;;;;;;16.92;15.23;;;;;;;;;;514204;28;1539;-87
2022/06/27 01:27:53;;;;;;;16.40;14.83;;;;;;;;;;515648;28;1591;-87
2022/06/27 01:28:09;;;;;;;16.30;14.60;;;;;;;;;;515133;28;1335;-87
2022/06/27 01:28:25;;;;;;;17.60;15.27;;;;;;;;;;513980;28;1280;-87
2022/06/27 01:28:40;;;;;;;16.75;15.00;;;;;;;;;;513409;28;946;-87
2022/06/27 01:28:56;;;;;;;16.05;13.98;;;;;;;;;;514125;28;1145;-87
2022/06/27 01:29:11;;;;;;;18.23;14.60;;;;;;;;;;516793;28;1391;-87
2022/06/27 01:29:27;;;;;;;16.85;14.75;;;;;;;;;;517009;28;1557;-87
2022/06/27 01:29:43;;;;;;;16.02;14.43;;;;;;;;;;515662;28;817;-87
2022/06/27 01:29:59;;;;;;;16.03;14.33;;;;;;;;;;512587;28;1489;-88
2022/06/27 01:30:14;;;;;;;16.23;14.10;;;;;;;;;;514750;28;1404;-87
2022/06/27 01:30:30;;;;;;;15.70;13.32;;;;;;;;;;516196;28;1782;-87
2022/06/27 01:30:45;;;;;;;15.20;13.17;;;;;;;;;;516285;28;1644;-87
2022/06/27 01:31:01;;;;;;;14.55;13.13;;;;;;;;;;514140;28;1217;-87
2022/06/27 01:31:17;;;;;;;14.23;13.00;;;;;;;;;;513959;28;1172;-87
2022/06/27 01:31:34;;;;;;;14.07;12.88;;;;;;;;;;516357;28;1366;-87
2022/06/27 01:31:50;;;;;;;14.25;12.93;;;;;;;;;;515808;28;1747;-87
2022/06/27 01:32:06;;;;;;;14.35;12.85;;;;;;;;;;514221;28;1204;-87
2022/06/27 01:32:22;;;;;;;13.65;12.30;;;;;;;;;;514245;28;1516;-87
2022/06/27 01:32:37;;;;;;;13.03;11.73;;;;;;;;;;514055;28;1907;-87
2022/06/27 01:32:53;;;;;;;12.93;11.57;;;;;;;;;;514304;28;1350;-87
2022/06/27 01:33:08;;;;;;;13.00;11.63;;;;;;;;;;510343;29;1181;-87
2022/06/27 01:33:24;;;;;;;13.00;11.70;;;;;;;;;;514315;28;1234;-87
2022/06/27 01:33:39;;;;;;;12.80;11.50;;;;;;;;;;516220;28;1285;-88
2022/06/27 01:33:55;;;;;;;13.38;11.98;;;;;;;;;;514342;28;1164;-88
2022/06/27 01:34:11;;;;;;;16.00;12.60;;;;;;;;;;516381;28;1292;-88
2022/06/27 01:34:27;;;;;;;15.57;12.32;;;;;;;;;;516371;28;916;-87
2022/06/27 01:34:42;;;;;;;13.90;12.10;;;;;;;;;;516310;28;1161;-87
2022/06/27 01:34:59;;;;;;;15.52;12.55;;;;;;;;;;514132;28;1189;-87
2022/06/27 01:35:14;;;;;;;15.63;12.63;;;;;;;;;;511949;29;1699;-87
2022/06/27 01:35:29;;;;;;;14.07;12.60;;;;;;;;;;512300;29;852;-87
2022/06/27 01:35:46;;;;;;;14.13;12.73;;;;;;;;;;513095;28;1051;-87